Map Display - CYYZ to EGPK
(last flight recorded 29-10-2020, 21:36 - Andrew Siddall)

Aircraft Weights    Units : Maximums
Passengers :    
Cargo : kg kg
Suggested Fuel Load : kg ? kg
 
     
 
Dry Operating : kg    
Total Payload : 0 kg 0 kg
 
Take Off : 62,224 kg kg
 
Expected Landing : 15,917 kg ? kg

Andrew Siddall,  B744 ,  G-BNLB,  .

Route Distance Previous
Flights
Average
Duration
Average
Fuel Flow
Average
Fuel Use
CYYZ - Toronto/Pearson Intl, Canada
EGPK - Prestwick
2,858 nm 1 06:24 7,235 kg/h 46,307 kg

Current weather :-
2020/10/29 22:06
TAF TAF
AMD CYYZ 292203Z 2922/3024 03012KT P6SM BKN020 OVC040
TEMPO 2922/2924 4SM -RA BR BKN008 OVC020
FM300000 03010G20KT P6SM OVC012
TEMPO 3000/3002 OVC025 PROB30 3000/3002 6SM -DZ BR OVC009
FM300200 03012KT P6SM BKN020 OVC060
TEMPO 3002/3010 BKN030
FM301000 02010KT P6SM BKN030
BECMG 3016/3018 35010KT
FM302200 35010KT P6SM FEW030
RMK NXT FCST BY 300000Z
2020/10/29 18:09
TAF EGPK 291655Z 2918/3018 20015KT 9999 SCT016 BKN030
TEMPO 2918/3004 21018G30KT 7000 -RADZ BKN012 PROB40
TEMPO 2918/2924 4000 DZ BR BKN007
BECMG 3004/3007 26012KT
TEMPO 3004/3018 7000 SHRA PROB40
TEMPO 3004/3012 27015G25KT

Back to Virtual Airline